| time (UTC) | temp C | wind direction | speed KPH | gust KPH | rain 1hr cm | rain 24hr cm | rain mn cm | humidity % | barometer mb |
| 20260906212300 | 33 | 157 | 20.9 | 33.8 | 0.00 | 0.00 | 0.00 | 38 | 1016.1 |
| 20260906211800 | 33 | 138 | 19.3 | 29.0 | 0.00 | 0.00 | 0.00 | 39 | 1016.2 |
| 20260906211255 | 33 | 176 | 14.5 | 27.4 | 0.00 | 0.00 | 0.00 | 38 | 1016.2 |
| 20260906210750 | 33 | 121 | 19.3 | 20.9 | 0.00 | 0.00 | 0.00 | 38 | 1016.2 |
| 20260906210245 | 32 | 144 | 30.6 | 37.0 | 0.00 | 0.00 | 0.00 | 38 | 1016.3 |
| 20260906205745 | 33 | 153 | 27.4 | 32.2 | 0.00 | 0.00 | 0.00 | 38 | 1016.4 |
| 20260906205241 | 33 | 139 | 17.7 | 30.6 | 0.00 | 0.00 | 0.00 | 39 | 1016.4 |
| 20260906204736 | 33 | 157 | 20.9 | 27.4 | 0.00 | 0.00 | 0.00 | 39 | 1016.6 |
| 20260906204230 | 32 | 150 | 17.7 | 17.7 | 0.00 | 0.00 | 0.00 | 40 | 1016.6 |
| 20260906203729 | 33 | 132 | 25.7 | 27.4 | 0.00 | 0.00 | 0.00 | 40 | 1016.6 |
| 20260906203225 | 32 | 151 | 20.9 | 20.9 | 0.00 | 0.00 | 0.00 | 41 | 1016.6 |
| 20260906202722 | 32 | 170 | 12.9 | 19.3 | 0.00 | 0.00 | 0.00 | 39 | 1016.8 |
| 20260906202221 | 32 | 164 | 16.1 | 25.7 | 0.00 | 0.00 | 0.00 | 40 | 1016.6 |
| 20260906201716 | 32 | 146 | 25.7 | 30.6 | 0.00 | 0.00 | 0.00 | 41 | 1016.5 |
| 20260906201216 | 32 | 115 | 16.1 | 27.4 | 0.00 | 0.00 | 0.00 | 40 | 1017.0 |
| 20260906200711 | 32 | 142 | 24.1 | 29.0 | 0.00 | 0.00 | 0.00 | 40 | 1016.6 |
| 20260906200207 | 32 | 166 | 19.3 | 32.2 | 0.00 | 0.00 | 0.00 | 42 | 1016.9 |
| 20260906195703 | 32 | 134 | 24.1 | 24.1 | 0.00 | 0.00 | 0.00 | 42 | 1016.9 |
| 20260906195159 | 32 | 191 | 14.5 | 22.5 | 0.00 | 0.00 | 0.00 | 41 | 1016.9 |
| 20260906194654 | 32 | 152 | 29.0 | 29.0 | 0.00 | 0.00 | 0.00 | 41 | 1017.2 |
| 20260906194149 | 32 | 158 | 12.9 | 24.1 | 0.00 | 0.00 | 0.00 | 42 | 1017.2 |
| 20260906193644 | 32 | 144 | 14.5 | 17.7 | 0.00 | 0.00 | 0.00 | 41 | 1017.4 |
| 20260906193139 | 32 | 165 | 14.5 | 24.1 | 0.00 | 0.00 | 0.00 | 42 | 1017.2 |
| 20260906192636 | 31 | 151 | 19.3 | 24.1 | 0.00 | 0.00 | 0.00 | 44 | 1017.2 |
| 20260906192134 | 31 | 141 | 20.9 | 35.4 | 0.00 | 0.00 | 0.00 | 44 | 1017.4 |
| 20260906191630 | 32 | 133 | 17.7 | 27.4 | 0.00 | 0.00 | 0.00 | 43 | 1017.3 |
| 20260906191128 | 32 | 133 | 25.7 | 29.0 | 0.00 | 0.00 | 0.00 | 45 | 1017.2 |
| 20260906190623 | 32 | 175 | 11.3 | 17.7 | 0.00 | 0.00 | 0.00 | 42 | 1017.9 |
| 20260906190118 | 32 | 172 | 16.1 | 17.7 | 0.00 | 0.00 | 0.00 | 43 | 1017.9 |
| 20260906185616 | 32 | 164 | 17.7 | 24.1 | 0.00 | 0.00 | 0.00 | 42 | 1017.8 |
| 20260906185116 | 32 | 135 | 33.8 | 37.0 | 0.00 | 0.00 | 0.00 | 45 | 1017.8 |
| 20260906184610 | 31 | 155 | 12.9 | 17.7 | 0.00 | 0.00 | 0.00 | 44 | 1017.7 |
| 20260906184106 | 31 | 206 | 9.7 | 22.5 | 0.00 | 0.00 | 0.00 | 43 | 1018.1 |
| 20260906183602 | 31 | 114 | 17.7 | 22.5 | 0.00 | 0.00 | 0.00 | 45 | 1018.2 |
| 20260906183058 | 31 | 146 | 22.5 | 32.2 | 0.00 | 0.00 | 0.00 | 46 | 1018.0 |
| 20260906182552 | 31 | 195 | 8.0 | 14.5 | 0.00 | 0.00 | 0.00 | 48 | 1018.3 |
| 20260906182049 | 31 | 169 | 12.9 | 14.5 | 0.00 | 0.00 | 0.00 | 46 | 1018.3 |
| 20260906181544 | 31 | 144 | 12.9 | 24.1 | 0.00 | 0.00 | 0.00 | 46 | 1018.5 |
| 20260906181039 | 31 | 189 | 9.7 | 19.3 | 0.00 | 0.00 | 0.00 | 47 | 1018.3 |
| 20260906180534 | 31 | 197 | 8.0 | 14.5 | 0.00 | 0.00 | 0.00 | 46 | 1018.4 |
| 20260906180033 | 31 | 164 | 14.5 | 22.5 | 0.00 | 0.00 | 0.00 | 46 | 1018.5 |
| 20260906175527 | 31 | 152 | 16.1 | 20.9 | 0.00 | 0.00 | 0.00 | 46 | 1018.7 |
| 20260906175027 | 31 | 230 | 8.0 | 20.9 | 0.00 | 0.00 | 0.00 | 46 | 1018.9 |
| 20260906174525 | 31 | 169 | 12.9 | 25.7 | 0.00 | 0.00 | 0.00 | 49 | 1018.7 |
| 20260906174020 | 31 | 185 | 8.0 | 14.5 | 0.00 | 0.00 | 0.00 | 49 | 1018.8 |
| 20260906173515 | 30 | 150 | 12.9 | 20.9 | 0.00 | 0.00 | 0.00 | 49 | 1018.8 |
| 20260906173010 | 31 | 141 | 16.1 | 22.5 | 0.00 | 0.00 | 0.00 | 47 | 1019.0 |
| 20260906172505 | 31 | 163 | 14.5 | 22.5 | 0.00 | 0.00 | 0.00 | 49 | 1019.0 |
| 20260906172001 | 31 | 153 | 14.5 | 29.0 | 0.00 | 0.00 | 0.00 | 48 | 1018.9 |
| 20260906171455 | 31 | 170 | 9.7 | 19.3 | 0.00 | 0.00 | 0.00 | 49 | 1019.0 |
| 20260906170950 | 30 | 146 | 19.3 | 30.6 | 0.00 | 0.00 | 0.00 | 49 | 1019.1 |
| 20260906170447 | 30 | 170 | 16.1 | 19.3 | 0.00 | 0.00 | 0.00 | 50 | 1019.1 |
| 20260906165944 | 30 | 200 | 11.3 | 17.7 | 0.00 | 0.00 | 0.00 | 49 | 1019.0 |
| 20260906165443 | 30 | 172 | 16.1 | 22.5 | 0.00 | 0.00 | 0.00 | 51 | 1019.1 |
| 20260906164937 | 30 | 175 | 16.1 | 16.1 | 0.00 | 0.00 | 0.00 | 51 | 1019.2 |
| 20260906164436 | 30 | 153 | 17.7 | 29.0 | 0.00 | 0.00 | 0.00 | 52 | 1019.1 |
| 20260906163927 | 30 | 152 | 20.9 | 22.5 | 0.00 | 0.00 | 0.00 | 53 | 1019.2 |
| 20260906163423 | 30 | 187 | 9.7 | 16.1 | 0.00 | 0.00 | 0.00 | 54 | 1019.2 |
| 20260906162920 | 30 | 177 | 12.9 | 17.7 | 0.00 | 0.00 | 0.00 | 52 | 1019.2 |
| 20260906162414 | 30 | 201 | 11.3 | 14.5 | 0.00 | 0.00 | 0.00 | 56 | 1019.0 |
| 20260906161909 | 30 | 170 | 14.5 | 16.1 | 0.00 | 0.00 | 0.00 | 57 | 1019.2 |
| 20260906161408 | 30 | 205 | 12.9 | 22.5 | 0.00 | 0.00 | 0.00 | 57 | 1019.0 |
| 20260906160907 | 29 | 211 | 19.3 | 24.1 | 0.00 | 0.00 | 0.00 | 57 | 1019.4 |
| 20260906160401 | 29 | 199 | 19.3 | 22.5 | 0.00 | 0.00 | 0.00 | 56 | 1019.3 |
| 20260906155859 | 29 | 213 | 19.3 | 22.5 | 0.00 | 0.00 | 0.00 | 58 | 1019.1 |
| 20260906155353 | 28 | 206 | 11.3 | 22.5 | 0.00 | 0.00 | 0.00 | 59 | 1019.2 |
| 20260906154850 | 28 | 186 | 12.9 | 24.1 | 0.00 | 0.00 | 0.00 | 59 | 1019.0 |
| 20260906154349 | 28 | 200 | 19.3 | 20.9 | 0.00 | 0.00 | 0.00 | 59 | 1019.1 |
| 20260906153848 | 28 | 209 | 19.3 | 22.5 | 0.00 | 0.00 | 0.00 | 61 | 1019.2 |
| 20260906153342 | 28 | 214 | 14.5 | 17.7 | 0.00 | 0.00 | 0.00 | 61 | 1019.2 |
| 20260906152837 | 28 | 202 | 17.7 | 19.3 | 0.00 | 0.00 | 0.00 | 61 | 1019.3 |
| 20260906152337 | 27 | 212 | 16.1 | 22.5 | 0.00 | 0.00 | 0.00 | 62 | 1019.0 |
| 20260906151836 | 27 | 217 | 16.1 | 19.3 | 0.00 | 0.00 | 0.00 | 64 | 1019.1 |
| 20260906151332 | 27 | 203 | 20.9 | 24.1 | 0.00 | 0.00 | 0.00 | 63 | 1019.0 |
| 20260906150827 | 27 | 201 | 12.9 | 16.1 | 0.00 | 0.00 | 0.00 | 64 | 1019.0 |
| 20260906150323 | 27 | 203 | 17.7 | 22.5 | 0.00 | 0.00 | 0.00 | 64 | 1019.0 |
| 20260906145822 | 27 | 189 | 11.3 | 17.7 | 0.00 | 0.00 | 0.00 | 66 | 1019.0 |
| 20260906145320 | 26 | 201 | 19.3 | 19.3 | 0.00 | 0.00 | 0.00 | 66 | 1019.3 |
| 20260906144816 | 26 | 193 | 11.3 | 19.3 | 0.00 | 0.00 | 0.00 | 65 | 1019.1 |
| 20260906144311 | 26 | 196 | 14.5 | 22.5 | 0.00 | 0.00 | 0.00 | 65 | 1019.0 |
| 20260906143810 | 26 | 202 | 19.3 | 20.9 | 0.00 | 0.00 | 0.00 | 66 | 1018.9 |
| 20260906143307 | 26 | 193 | 9.7 | 16.1 | 0.00 | 0.00 | 0.00 | 67 | 1019.1 |
| 20260906142803 | 26 | 218 | 14.5 | 16.1 | 0.00 | 0.00 | 0.00 | 67 | 1019.2 |
| 20260906142258 | 25 | 204 | 14.5 | 19.3 | 0.00 | 0.00 | 0.00 | 65 | 1018.9 |
| 20260906141756 | 25 | 198 | 16.1 | 16.1 | 0.00 | 0.00 | 0.00 | 66 | 1019.1 |
| 20260906141251 | 25 | 189 | 8.0 | 19.3 | 0.00 | 0.00 | 0.00 | 67 | 1018.9 |
| 20260906140750 | 25 | 201 | 11.3 | 14.5 | 0.00 | 0.00 | 0.00 | 67 | 1018.9 |
| 20260906140240 | 25 | 195 | 11.3 | 12.9 | 0.00 | 0.00 | 0.00 | 69 | 1018.8 |
| 20260906135737 | 24 | 172 | 11.3 | 17.7 | 0.00 | 0.00 | 0.00 | 70 | 1018.8 |
| 20260906135233 | 24 | 176 | 11.3 | 16.1 | 0.00 | 0.00 | 0.00 | 69 | 1018.9 |
| 20260906134728 | 23 | 167 | 9.7 | 14.5 | 0.00 | 0.00 | 0.00 | 70 | 1018.5 |
| 20260906134223 | 23 | 183 | 9.7 | 17.7 | 0.00 | 0.00 | 0.00 | 69 | 1018.5 |
| 20260906133719 | 23 | 205 | 11.3 | 17.7 | 0.00 | 0.00 | 0.00 | 71 | 1018.4 |
| 20260906133214 | 23 | 198 | 11.3 | 14.5 | 0.00 | 0.00 | 0.00 | 71 | 1018.3 |
| 20260906132709 | 23 | 198 | 9.7 | 14.5 | 0.00 | 0.00 | 0.00 | 71 | 1018.5 |
| 20260906132205 | 23 | 182 | 8.0 | 14.5 | 0.00 | 0.00 | 0.00 | 71 | 1018.2 |
| 20260906131700 | 22 | 164 | 9.7 | 16.1 | 0.00 | 0.00 | 0.00 | 71 | 1018.5 |
| 20260906131154 | 22 | 188 | 8.0 | 14.5 | 0.00 | 0.00 | 0.00 | 72 | 1018.5 |
| 20260906130649 | 22 | 167 | 9.7 | 14.5 | 0.00 | 0.00 | 0.00 | 72 | 1018.3 |
| 20260906130145 | 22 | 168 | 9.7 | 14.5 | 0.00 | 0.00 | 0.00 | 72 | 1018.2 |
| 20260906125637 | 22 | 173 | 9.7 | 14.5 | 0.00 | 0.00 | 0.00 | 72 | 1018.2 |
| 20260906125136 | 22 | 166 | 11.3 | 12.9 | 0.00 | 0.00 | 0.00 | 72 | 1018.1 |
| 20260906124632 | 22 | 167 | 11.3 | 16.1 | 0.00 | 0.00 | 0.00 | 72 | 1018.2 |
| 20260906124127 | 22 | 186 | 9.7 | 11.3 | 0.00 | 0.00 | 0.00 | 73 | 1018.2 |
| 20260906123626 | 22 | 182 | 9.7 | 12.9 | 0.00 | 0.00 | 0.00 | 73 | 1018.2 |
| 20260906123121 | 22 | 199 | 8.0 | 12.9 | 0.00 | 0.00 | 0.00 | 73 | 1018.1 |
| 20260906122620 | 22 | 165 | 9.7 | 12.9 | 0.00 | 0.00 | 0.00 | 72 | 1017.9 |
| 20260906122116 | 22 | 186 | 6.4 | 12.9 | 0.00 | 0.00 | 0.00 | 73 | 1017.9 |
| 20260906121612 | 22 | 169 | 8.0 | 14.5 | 0.00 | 0.00 | 0.00 | 73 | 1017.9 |
| 20260906121103 | 22 | 192 | 8.0 | 9.7 | 0.00 | 0.00 | 0.00 | 73 | 1017.9 |
| 20260906120557 | 22 | 167 | 9.7 | 14.5 | 0.00 | 0.00 | 0.00 | 72 | 1017.9 |
| 20260906120055 | 22 | 177 | 6.4 | 12.9 | 0.00 | 0.00 | 0.00 | 72 | 1017.5 |
| 20260906115549 | 22 | 163 | 9.7 | 9.7 | 0.00 | 0.00 | 0.00 | 72 | 1017.4 |
| 20260906115044 | 22 | 167 | 9.7 | 12.9 | 0.00 | 0.00 | 0.00 | 72 | 1017.5 |
| 20260906114538 | 22 | 180 | 8.0 | 11.3 | 0.00 | 0.00 | 0.00 | 73 | 1017.7 |
| 20260906114034 | 22 | 164 | 8.0 | 11.3 | 0.00 | 0.00 | 0.00 | 73 | 1017.7 |
| 20260906113532 | 22 | 145 | 11.3 | 12.9 | 0.00 | 0.00 | 0.00 | 73 | 1017.7 |
| 20260906113028 | 22 | 150 | 4.8 | 8.0 | 0.00 | 0.00 | 0.00 | 74 | 1017.8 |
| 20260906112522 | 22 | 142 | 6.4 | 11.3 | 0.00 | 0.00 | 0.00 | 74 | 1017.7 |
| 20260906112019 | 22 | 137 | 6.4 | 12.9 | 0.00 | 0.00 | 0.00 | 74 | 1017.7 |
| 20260906111513 | 22 | 156 | 8.0 | 12.9 | 0.00 | 0.00 | 0.00 | 74 | 1017.8 |
| 20260906111008 | 22 | 154 | 8.0 | 9.7 | 0.00 | 0.00 | 0.00 | 74 | 1017.2 |
| 20260906110503 | 22 | 159 | 9.7 | 12.9 | 0.00 | 0.00 | 0.00 | 74 | 1017.4 |
| 20260906110002 | 22 | 164 | 9.7 | 9.7 | 0.00 | 0.00 | 0.00 | 75 | 1017.5 |
| 20260906105458 | 22 | 155 | 8.0 | 9.7 | 0.00 | 0.00 | 0.00 | 75 | 1017.3 |
| 20260906104954 | 22 | 156 | 9.7 | 9.7 | 0.00 | 0.00 | 0.00 | 76 | 1017.4 |
| 20260906104452 | 22 | 144 | 8.0 | 9.7 | 0.00 | 0.00 | 0.00 | 77 | 1017.2 |
| 20260906103951 | 22 | 160 | 6.4 | 8.0 | 0.00 | 0.00 | 0.00 | 77 | 1017.2 |
| 20260906103450 | 22 | 154 | 6.4 | 8.0 | 0.00 | 0.00 | 0.00 | 77 | 1017.7 |
| 20260906102945 | 22 | 147 | 6.4 | 8.0 | 0.00 | 0.00 | 0.00 | 78 | 1017.3 |
| 20260906102444 | 22 | 130 | 8.0 | 9.7 | 0.00 | 0.00 | 0.00 | 77 | 1017.1 |
| 20260906101939 | 22 | 133 | 9.7 | 9.7 | 0.00 | 0.00 | 0.00 | 75 | 1017.2 |
| 20260906101435 | 22 | 150 | 4.8 | 8.0 | 0.00 | 0.00 | 0.00 | 74 | 1017.2 |
| 20260906100930 | 22 | 158 | 8.0 | 8.0 | 0.00 | 0.00 | 0.00 | 75 | 1017.2 |
| 20260906100430 | 22 | 152 | 4.8 | 6.4 | 0.00 | 0.00 | 0.00 | 75 | 1017.2 |
| 20260906095924 | 22 | 195 | 3.2 | 6.4 | 0.00 | 0.00 | 0.00 | 75 | 1017.3 |
| 20260906095420 | 22 | 188 | 3.2 | 4.8 | 0.00 | 0.00 | 0.00 | 76 | 1017.3 |
| 20260906094914 | 22 | 172 | 3.2 | 4.8 | 0.00 | 0.00 | 0.00 | 76 | 1017.2 |
| 20260906094409 | 22 | 149 | 3.2 | 6.4 | 0.00 | 0.00 | 0.00 | 76 | 1017.4 |
| 20260906093905 | 22 | 149 | 4.8 | 8.0 | 0.00 | 0.00 | 0.00 | 74 | 1017.4 |
| 20260906093401 | 22 | 159 | 4.8 | 6.4 | 0.00 | 0.00 | 0.00 | 75 | 1017.4 |
| 20260906092855 | 22 | 202 | 4.8 | 6.4 | 0.00 | 0.00 | 0.00 | 77 | 1017.5 |
| 20260906092349 | 22 | 209 | 6.4 | 6.4 | 0.00 | 0.00 | 0.00 | 78 | 1017.4 |
| 20260906091845 | 21 | 174 | 3.2 | 4.8 | 0.00 | 0.00 | 0.00 | 80 | 1017.5 |
| 20260906091341 | 21 | 178 | 0.0 | 3.2 | 0.00 | 0.00 | 0.00 | 81 | 1017.4 |
| 20260906090837 | 21 | 199 | 3.2 | 3.2 | 0.00 | 0.00 | 0.00 | 82 | 1017.5 |
| 20260906090336 | 21 | 239 | 3.2 | 4.8 | 0.00 | 0.00 | 0.00 | 82 | 1017.4 |
| 20260906085831 | 22 | 218 | 3.2 | 3.2 | 0.00 | 0.00 | 0.00 | 82 | 1017.2 |
| 20260906085329 | 21 | 158 | 1.6 | 4.8 | 0.00 | 0.00 | 0.00 | 81 | 1017.4 |
| 20260906084824 | 21 | 235 | 3.2 | 3.2 | 0.00 | 0.00 | 0.00 | 81 | 1017.4 |
| 20260906084324 | 21 | 271 | 3.2 | 4.8 | 0.00 | 0.00 | 0.00 | 82 | 1017.3 |
| 20260906083813 | 21 | 293 | 3.2 | 4.8 | 0.00 | 0.00 | 0.00 | 81 | 1017.3 |
| 20260906083308 | 22 | 316 | 6.4 | 8.0 | 0.00 | 0.00 | 0.00 | 80 | 1017.4 |
| 20260906082804 | 22 | 306 | 9.7 | 9.7 | 0.00 | 0.00 | 0.00 | 78 | 1017.4 |
| 20260906082258 | 22 | 300 | 4.8 | 6.4 | 0.00 | 0.00 | 0.00 | 75 | 1017.4 |
| 20260906081754 | 23 | 289 | 4.8 | 6.4 | 0.00 | 0.00 | 0.00 | 71 | 1017.4 |
| 20260906081250 | 23 | 229 | 4.8 | 8.0 | 0.00 | 0.00 | 0.00 | 68 | 1017.3 |
| 20260906080745 | 23 | 203 | 4.8 | 8.0 | 0.00 | 0.00 | 0.00 | 66 | 1017.3 |
| 20260906080242 | 23 | 189 | 4.8 | 8.0 | 0.00 | 0.00 | 0.00 | 66 | 1017.2 |
| 20260906075735 | 23 | 186 | 4.8 | 9.7 | 0.00 | 0.00 | 0.00 | 65 | 1017.8 |
| 20260906075230 | 23 | 167 | 9.7 | 11.3 | 0.00 | 0.00 | 0.00 | 66 | 1017.4 |
| 20260906074725 | 23 | 179 | 6.4 | 12.9 | 0.00 | 0.00 | 0.00 | 66 | 1017.5 |
| 20260906074224 | 23 | 173 | 8.0 | 9.7 | 0.00 | 0.00 | 0.00 | 66 | 1017.2 |
| 20260906073719 | 23 | 180 | 8.0 | 12.9 | 0.00 | 0.00 | 0.00 | 65 | 1017.5 |
| 20260906073214 | 23 | 190 | 6.4 | 9.7 | 0.00 | 0.00 | 0.00 | 66 | 1017.7 |
| 20260906072710 | 23 | 171 | 8.0 | 11.3 | 0.00 | 0.00 | 0.00 | 65 | 1017.5 |
| 20260906072205 | 23 | 181 | 8.0 | 9.7 | 0.00 | 0.00 | 0.00 | 66 | 1017.3 |
| 20260906071701 | 24 | 181 | 8.0 | 11.3 | 0.00 | 0.00 | 0.00 | 65 | 1017.7 |
| 20260906071201 | 24 | 181 | 11.3 | 11.3 | 0.00 | 0.00 | 0.00 | 65 | 1017.4 |
| 20260906070657 | 24 | 191 | 8.0 | 9.7 | 0.00 | 0.00 | 0.00 | 66 | 1017.5 |
| 20260906070153 | 24 | 191 | 9.7 | 9.7 | 0.00 | 0.00 | 0.00 | 66 | 1017.8 |
| 20260906065652 | 24 | 198 | 6.4 | 11.3 | 0.00 | 0.00 | 0.00 | 66 | 1017.7 |
| 20260906065148 | 24 | 185 | 8.0 | 14.5 | 0.00 | 0.00 | 0.00 | 66 | 1017.4 |
| 20260906064643 | 23 | 181 | 9.7 | 9.7 | 0.00 | 0.00 | 0.00 | 67 | 1017.3 |
| 20260906064139 | 23 | 180 | 8.0 | 9.7 | 0.00 | 0.00 | 0.00 | 68 | 1017.8 |
| 20260906063633 | 23 | 180 | 4.8 | 9.7 | 0.00 | 0.00 | 0.00 | 69 | 1017.5 |
| 20260906063129 | 23 | 180 | 6.4 | 6.4 | 0.00 | 0.00 | 0.00 | 70 | 1017.7 |
| 20260906062625 | 23 | 185 | 6.4 | 6.4 | 0.00 | 0.00 | 0.00 | 70 | 1017.8 |
| 20260906062123 | 23 | 188 | 6.4 | 6.4 | 0.00 | 0.00 | 0.00 | 71 | 1017.7 |
| 20260906061620 | 23 | 194 | 4.8 | 8.0 | 0.00 | 0.00 | 0.00 | 72 | 1017.7 |
| 20260906061119 | 23 | 167 | 4.8 | 6.4 | 0.00 | 0.00 | 0.00 | 73 | 1017.7 |
| 20260906060616 | 23 | 172 | 4.8 | 6.4 | 0.00 | 0.00 | 0.00 | 74 | 1017.8 |
| 20260906060109 | 23 | 175 | 3.2 | 6.4 | 0.00 | 0.00 | 0.00 | 75 | 1017.9 |
| 20260906055603 | 23 | 236 | 4.8 | 4.8 | 0.00 | 0.00 | 0.00 | 77 | 1017.8 |
| 20260906055058 | 23 | 254 | 3.2 | 4.8 | 0.00 | 0.00 | 0.00 | 79 | 1017.8 |
| 20260906054552 | 22 | 257 | 3.2 | 6.4 | 0.00 | 0.00 | 0.00 | 80 | 1017.7 |
| 20260906054047 | 22 | 230 | 3.2 | 4.8 | 0.00 | 0.00 | 0.00 | 82 | 1017.7 |
| 20260906053544 | 22 | 212 | 3.2 | 4.8 | 0.00 | 0.00 | 0.00 | 83 | 1017.8 |
| 20260906053039 | 22 | 242 | 1.6 | 3.2 | 0.00 | 0.00 | 0.00 | 85 | 1017.8 |
| 20260906052534 | 23 | 231 | 3.2 | 6.4 | 0.00 | 0.00 | 0.00 | 85 | 1017.7 |
| 20260906052032 | 23 | 218 | 4.8 | 6.4 | 0.00 | 0.00 | 0.00 | 86 | 1017.9 |
| 20260906051527 | 22 | 145 | 3.2 | 6.4 | 0.00 | 0.00 | 0.00 | 87 | 1017.8 |
| 20260906051023 | 22 | 162 | 6.4 | 8.0 | 0.00 | 0.00 | 0.00 | 89 | 1017.7 |
| 20260906050518 | 22 | 169 | 6.4 | 8.0 | 0.00 | 0.00 | 0.00 | 91 | 1017.8 |
| 20260906050013 | 22 | 159 | 6.4 | 8.0 | 0.00 | 0.00 | 0.00 | 92 | 1017.8 |
| 20260906045511 | 22 | 163 | 6.4 | 6.4 | 0.00 | 2.49 | 2.49 | 93 | 1017.9 |
| 20260906045007 | 22 | 133 | 6.4 | 6.4 | 0.00 | 2.49 | 2.49 | 95 | 1017.7 |
| 20260906044502 | 22 | 150 | 8.0 | 9.7 | 0.00 | 2.49 | 2.49 | 96 | 1017.8 |
| 20260906043957 | 22 | 163 | 6.4 | 9.7 | 0.00 | 2.49 | 2.49 | 98 | 1017.7 |
| 20260906043453 | 22 | 169 | 9.7 | 9.7 | 0.00 | 2.49 | 2.49 | 99 | 1017.7 |
| 20260906042949 | 21 | 191 | 4.8 | 8.0 | 0.00 | 2.49 | 2.49 | 99 | 1017.5 |
| 20260906042448 | 21 | 201 | 8.0 | 9.7 | 0.00 | 2.49 | 2.49 | 99 | 1017.7 |
| 20260906041948 | 21 | 206 | 6.4 | 8.0 | 0.00 | 2.49 | 2.49 | 99 | 1017.7 |
| 20260906041444 | 21 | 172 | 6.4 | 8.0 | 0.00 | 2.49 | 2.49 | 99 | 1017.5 |
| 20260906040943 | 21 | 169 | 4.8 | 6.4 | 0.00 | 2.49 | 2.49 | 99 | 1017.8 |
| 20260906040438 | 21 | 182 | 3.2 | 4.8 | 0.00 | 2.49 | 2.49 | 99 | 1018.0 |
| 20260906035933 | 21 | 212 | 8.0 | 9.7 | 0.00 | 2.49 | 2.49 | 99 | 1017.8 |
| 20260906035429 | 20 | 168 | 9.7 | 12.9 | 0.00 | 2.49 | 2.49 | 99 | 1017.8 |
| 20260906034925 | 20 | 199 | 14.5 | 14.5 | 0.00 | 2.49 | 2.49 | 99 | 1017.9 |
| 20260906034419 | 21 | 221 | 11.3 | 12.9 | 0.00 | 2.49 | 2.49 | 99 | 1017.8 |
| 20260906033914 | 21 | 222 | 4.8 | 6.4 | 0.00 | 2.49 | 2.49 | 99 | 1018.0 |
| 20260906033409 | 21 | 157 | 1.6 | 6.4 | 0.00 | 2.49 | 2.49 | 99 | 1017.9 |
| 20260906032904 | 20 | 143 | 8.0 | 11.3 | 0.00 | 2.49 | 2.49 | 99 | 1017.3 |
| 20260906032400 | 20 | 150 | 8.0 | 11.3 | 0.00 | 2.49 | 2.49 | 99 | 1017.3 |
| 20260906031855 | 20 | 152 | 9.7 | 12.9 | 0.00 | 2.49 | 2.49 | 99 | 1017.1 |
| 20260906031350 | 20 | 141 | 12.9 | 16.1 | 0.00 | 2.49 | 2.49 | 99 | 1016.9 |
| 20260906030846 | 20 | 143 | 11.3 | 11.3 | 0.00 | 2.49 | 2.49 | 99 | 1016.6 |
| 20260906030341 | 20 | 142 | 9.7 | 11.3 | 0.00 | 2.49 | 2.49 | 99 | 1016.8 |
| 20260906025835 | 20 | 163 | 6.4 | 9.7 | 0.00 | 2.49 | 2.49 | 99 | 1016.8 |
| 20260906025329 | 20 | 155 | 8.0 | 9.7 | 0.00 | 2.49 | 2.49 | 99 | 1016.4 |
| 20260906024828 | 20 | 170 | 4.8 | 6.4 | 0.00 | 2.49 | 2.49 | 98 | 1016.6 |
| 20260906024328 | 20 | 161 | 6.4 | 8.0 | 0.05 | 2.49 | 2.49 | 98 | 1016.6 |
| 20260906023823 | 19 | 223 | 11.3 | 11.3 | 0.05 | 2.49 | 2.49 | 98 | 1016.9 |
| 20260906023319 | 19 | 159 | 9.7 | 11.3 | 0.13 | 2.46 | 2.46 | 98 | 1017.0 |
| 20260906022814 | 19 | 154 | 3.2 | 11.3 | 0.36 | 2.46 | 2.46 | 98 | 1017.1 |
| 20260906022309 | 19 | 194 | 12.9 | 20.9 | 0.43 | 2.44 | 2.44 | 98 | 1017.4 |
| 20260906021804 | 18 | 231 | 19.3 | 22.5 | 0.36 | 2.39 | 2.39 | 98 | 1017.8 |
| 20260906021258 | 18 | 282 | 9.7 | 12.9 | 1.02 | 2.36 | 2.36 | 98 | 1018.1 |
| 20260906020752 | 18 | 253 | 20.9 | 40.2 | 1.02 | 2.31 | 2.31 | 98 | 1017.9 |
| 20260906020247 | 18 | 226 | 22.5 | 27.4 | 2.16 | 2.18 | 2.18 | 97 | 1018.3 |
| 20260906015741 | 18 | 256 | 16.1 | 40.2 | 4.14 | 2.06 | 2.06 | 97 | 1018.4 |
| 20260906015239 | 17 | 205 | 22.5 | 48.3 | 6.91 | 1.78 | 1.78 | 96 | 1018.5 |
| 20260906014734 | 18 | 169 | 9.7 | 29.0 | 4.98 | 1.19 | 1.19 | 95 | 1019.2 |
| 20260906014230 | 18 | 318 | 29.0 | 38.6 | 3.43 | 0.58 | 0.58 | 94 | 1018.2 |
| 20260906013726 | 21 | 325 | 48.3 | 54.7 | 1.98 | 0.33 | 0.33 | 85 | 1017.9 |
| 20260906013226 | 26 | 322 | 88.5 | 88.5 | 0.00 | 0.00 | 0.00 | 58 | 1016.5 |
| 20260906012721 | 28 | 313 | 46.7 | 54.7 | 0.00 | 0.00 | 0.00 | 50 | 1016.0 |
| 20260906012216 | 30 | 349 | 30.6 | 45.1 | 0.00 | 0.00 | 0.00 | 46 | 1015.4 |
| 20260906011711 | 30 | 342 | 35.4 | 37.0 | 0.00 | 0.00 | 0.00 | 42 | 1015.4 |
| 20260906011206 | 31 | 329 | 11.3 | 24.1 | 0.00 | 0.00 | 0.00 | 41 | 1015.6 |
| 20260906010701 | 31 | 339 | 6.4 | 8.0 | 0.00 | 0.00 | 0.00 | 39 | 1015.3 |
| 20260906010158 | 32 | 24 | 6.4 | 12.9 | 0.00 | 0.00 | 0.00 | 38 | 1015.1 |
| 20260906005657 | 32 | 10 | 8.0 | 11.3 | 0.00 | 0.00 | 0.00 | 36 | 1015.3 |
| 20260906005157 | 32 | 88 | 8.0 | 14.5 | 0.00 | 0.00 | 0.00 | 36 | 1015.2 |
| 20260906004656 | 32 | 112 | 9.7 | 14.5 | 0.00 | 0.00 | 0.00 | 35 | 1015.0 |
| 20260906004151 | 32 | 128 | 9.7 | 17.7 | 0.00 | 0.00 | 0.00 | 35 | 1014.9 |
| 20260906003646 | 33 | 136 | 12.9 | 17.7 | 0.00 | 0.00 | 0.00 | 36 | 1015.0 |
| 20260906003142 | 33 | 140 | 12.9 | 17.7 | 0.00 | 0.00 | 0.00 | 36 | 1014.9 |
| 20260906002636 | 33 | 131 | 14.5 | 24.1 | 0.00 | 0.00 | 0.00 | 36 | 1015.0 |
| 20260906002131 | 33 | 139 | 19.3 | 19.3 | 0.00 | 0.00 | 0.00 | 35 | 1015.0 |
| 20260906001627 | 33 | 134 | 17.7 | 20.9 | 0.00 | 0.00 | 0.00 | 35 | 1014.6 |
| 20260906001126 | 33 | 136 | 20.9 | 25.7 | 0.00 | 0.00 | 0.00 | 35 | 1014.7 |
| 20260906000622 | 33 | 135 | 22.5 | 25.7 | 0.00 | 0.00 | 0.00 | 36 | 1014.5 |
| 20260906000118 | 33 | 140 | 19.3 | 24.1 | 0.00 | 0.00 | 0.00 | 36 | 1014.7 |
| 20260905235616 | 33 | 144 | 17.7 | 20.9 | 0.00 | 0.00 | 0.00 | 35 | 1014.6 |
| 20260905235112 | 33 | 136 | 20.9 | 27.4 | 0.00 | 0.00 | 0.00 | 35 | 1014.6 |
| 20260905234612 | 33 | 135 | 22.5 | 27.4 | 0.00 | 0.00 | 0.00 | 35 | 1014.5 |
| 20260905234107 | 33 | 136 | 19.3 | 30.6 | 0.00 | 0.00 | 0.00 | 34 | 1014.3 |
| 20260905233602 | 33 | 135 | 17.7 | 25.7 | 0.00 | 0.00 | 0.00 | 34 | 1014.2 |
| 20260905233102 | 33 | 140 | 14.5 | 22.5 | 0.00 | 0.00 | 0.00 | 32 | 1014.2 |
| 20260905232557 | 33 | 144 | 22.5 | 25.7 | 0.00 | 0.00 | 0.00 | 32 | 1014.3 |
| 20260905232053 | 34 | 161 | 16.1 | 25.7 | 0.00 | 0.00 | 0.00 | 32 | 1014.4 |
| 20260905231548 | 34 | 147 | 24.1 | 30.6 | 0.00 | 0.00 | 0.00 | 32 | 1014.1 |
| 20260905231044 | 35 | 140 | 30.6 | 37.0 | 0.00 | 0.00 | 0.00 | 32 | 1014.2 |
| 20260905230543 | 35 | 141 | 24.1 | 29.0 | 0.00 | 0.00 | 0.00 | 33 | 1014.0 |
| 20260905230042 | 35 | 142 | 30.6 | 33.8 | 0.00 | 0.00 | 0.00 | 34 | 1014.3 |
| 20260905225537 | 35 | 137 | 30.6 | 38.6 | 0.00 | 0.00 | 0.00 | 33 | 1014.1 |
| 20260905225033 | 35 | 137 | 20.9 | 33.8 | 0.00 | 0.00 | 0.00 | 33 | 1014.2 |
| 20260905224532 | 34 | 148 | 27.4 | 43.5 | 0.00 | 0.00 | 0.00 | 35 | 1014.2 |
| 20260905224032 | 35 | 151 | 24.1 | 32.2 | 0.00 | 0.00 | 0.00 | 33 | 1014.2 |
| 20260905223530 | 35 | 131 | 24.1 | 33.8 | 0.00 | 0.00 | 0.00 | 32 | 1014.2 |
| 20260905223025 | 35 | 150 | 29.0 | 38.6 | 0.00 | 0.00 | 0.00 | 32 | 1014.2 |
| 20260905222525 | 35 | 141 | 33.8 | 37.0 | 0.00 | 0.00 | 0.00 | 31 | 1014.2 |
| 20260905222020 | 36 | 134 | 30.6 | 35.4 | 0.00 | 0.00 | 0.00 | 31 | 1014.4 |
| 20260905221517 | 35 | 156 | 27.4 | 43.5 | 0.00 | 0.00 | 0.00 | 31 | 1014.3 |
| 20260905221012 | 35 | 136 | 20.9 | 29.0 | 0.00 | 0.00 | 0.00 | 31 | 1014.2 |
| 20260905220509 | 35 | 166 | 16.1 | 20.9 | 0.00 | 0.00 | 0.00 | 31 | 1014.4 |
| 20260905220004 | 35 | 169 | 14.5 | 20.9 | 0.00 | 0.00 | 0.00 | 30 | 1014.4 |
| 20260905215458 | 36 | 162 | 17.7 | 30.6 | 0.00 | 0.00 | 0.00 | 30 | 1014.5 |
| 20260905214954 | 36 | 174 | 16.1 | 29.0 | 0.00 | 0.00 | 0.00 | 30 | 1014.5 |
| 20260905214449 | 36 | 124 | 14.5 | 24.1 | 0.00 | 0.00 | 0.00 | 31 | 1014.5 |
| 20260905213943 | 36 | 157 | 22.5 | 33.8 | 0.00 | 0.00 | 0.00 | 30 | 1014.6 |
| 20260905213439 | 37 | 142 | 24.1 | 32.2 | 0.00 | 0.00 | 0.00 | 29 | 1014.6 |
| 20260905212934 | 37 | 146 | 17.7 | 30.6 | 0.00 | 0.00 | 0.00 | 29 | 1014.4 |